sensor_id;sensor_type;location;lat;lon;timestamp;P1;durP1;ratioP1;P2;durP2;ratioP2
39738;SDS011;25422;48.286;8.484;2022-09-03T00:02:27;7.32;;;6.63;;
39738;SDS011;25422;48.286;8.484;2022-09-03T00:10:25;8.27;;;6.70;;
39738;SDS011;25422;48.286;8.484;2022-09-03T00:12:56;7.25;;;6.43;;
39738;SDS011;25422;48.286;8.484;2022-09-03T00:15:26;6.97;;;6.22;;
39738;SDS011;25422;48.286;8.484;2022-09-03T00:17:59;7.10;;;6.10;;
39738;SDS011;25422;48.286;8.484;2022-09-03T00:20:50;6.38;;;5.78;;
39738;SDS011;25422;48.286;8.484;2022-09-03T00:23:24;8.05;;;6.30;;
39738;SDS011;25422;48.286;8.484;2022-09-03T00:26:00;6.88;;;5.55;;
39738;SDS011;25422;48.286;8.484;2022-09-03T00:28:54;6.03;;;5.47;;
39738;SDS011;25422;48.286;8.484;2022-09-03T00:34:05;8.55;;;5.20;;
39738;SDS011;25422;48.286;8.484;2022-09-03T00:36:42;7.55;;;5.20;;
39738;SDS011;25422;48.286;8.484;2022-09-03T00:39:10;6.95;;;5.80;;
39738;SDS011;25422;48.286;8.484;2022-09-03T00:41:37;8.52;;;5.40;;
39738;SDS011;25422;48.286;8.484;2022-09-03T00:47:09;8.27;;;5.00;;
39738;SDS011;25422;48.286;8.484;2022-09-03T00:49:50;9.25;;;5.53;;
39738;SDS011;25422;48.286;8.484;2022-09-03T00:52:56;9.20;;;5.70;;
39738;SDS011;25422;48.286;8.484;2022-09-03T00:55:55;7.82;;;5.90;;
39738;SDS011;25422;48.286;8.484;2022-09-03T01:01:13;8.85;;;5.65;;
39738;SDS011;25422;48.286;8.484;2022-09-03T01:06:48;6.78;;;5.90;;
39738;SDS011;25422;48.286;8.484;2022-09-03T01:12:45;6.40;;;5.80;;
39738;SDS011;25422;48.286;8.484;2022-09-03T01:18:00;7.72;;;6.22;;
39738;SDS011;25422;48.286;8.484;2022-09-03T01:20:49;6.45;;;5.80;;
39738;SDS011;25422;48.286;8.484;2022-09-03T01:26:27;6.43;;;5.82;;
39738;SDS011;25422;48.286;8.484;2022-09-03T01:31:41;6.18;;;5.68;;
39738;SDS011;25422;48.286;8.484;2022-09-03T01:34:19;6.97;;;5.75;;
39738;SDS011;25422;48.286;8.484;2022-09-03T01:43:07;7.50;;;6.22;;
39738;SDS011;25422;48.286;8.484;2022-09-03T01:56:44;7.22;;;5.95;;
39738;SDS011;25422;48.286;8.484;2022-09-03T01:59:28;6.20;;;5.60;;
39738;SDS011;25422;48.286;8.484;2022-09-03T02:02:19;8.23;;;5.70;;
39738;SDS011;25422;48.286;8.484;2022-09-03T02:04:56;6.53;;;5.32;;
39738;SDS011;25422;48.286;8.484;2022-09-03T02:07:23;8.88;;;6.82;;
39738;SDS011;25422;48.286;8.484;2022-09-03T02:09:55;7.50;;;6.80;;
39738;SDS011;25422;48.286;8.484;2022-09-03T02:12:21;7.85;;;6.03;;
39738;SDS011;25422;48.286;8.484;2022-09-03T02:14:47;9.13;;;6.03;;
39738;SDS011;25422;48.286;8.484;2022-09-03T02:17:12;8.70;;;6.35;;
39738;SDS011;25422;48.286;8.484;2022-09-03T02:19:38;6.80;;;6.10;;
39738;SDS011;25422;48.286;8.484;2022-09-03T02:22:03;8.95;;;6.70;;
39738;SDS011;25422;48.286;8.484;2022-09-03T02:24:30;6.97;;;6.28;;
39738;SDS011;25422;48.286;8.484;2022-09-03T02:26:56;7.80;;;7.00;;
39738;SDS011;25422;48.286;8.484;2022-09-03T02:29:22;7.93;;;6.65;;
39738;SDS011;25422;48.286;8.484;2022-09-03T02:31:48;9.02;;;6.43;;
39738;SDS011;25422;48.286;8.484;2022-09-03T02:34:13;7.22;;;6.53;;
39738;SDS011;25422;48.286;8.484;2022-09-03T02:36:40;6.80;;;6.10;;
39738;SDS011;25422;48.286;8.484;2022-09-03T02:39:09;8.10;;;5.95;;
39738;SDS011;25422;48.286;8.484;2022-09-03T02:41:35;6.55;;;5.50;;
39738;SDS011;25422;48.286;8.484;2022-09-03T02:49:14;6.55;;;5.82;;
39738;SDS011;25422;48.286;8.484;2022-09-03T02:51:40;9.52;;;6.32;;
39738;SDS011;25422;48.286;8.484;2022-09-03T02:54:08;7.40;;;6.65;;
39738;SDS011;25422;48.286;8.484;2022-09-03T02:56:34;7.70;;;7.00;;
39738;SDS011;25422;48.286;8.484;2022-09-03T02:59:01;9.20;;;7.30;;
39738;SDS011;25422;48.286;8.484;2022-09-03T03:01:28;6.72;;;6.15;;
39738;SDS011;25422;48.286;8.484;2022-09-03T03:03:53;8.13;;;7.10;;
39738;SDS011;25422;48.286;8.484;2022-09-03T03:06:19;8.32;;;7.53;;
39738;SDS011;25422;48.286;8.484;2022-09-03T03:08:45;9.82;;;8.50;;
39738;SDS011;25422;48.286;8.484;2022-09-03T03:11:11;10.18;;;9.10;;
39738;SDS011;25422;48.286;8.484;2022-09-03T03:13:43;9.77;;;8.68;;
39738;SDS011;25422;48.286;8.484;2022-09-03T03:16:09;8.98;;;8.13;;
39738;SDS011;25422;48.286;8.484;2022-09-03T03:18:35;9.55;;;8.13;;
39738;SDS011;25422;48.286;8.484;2022-09-03T03:21:19;9.75;;;8.43;;
39738;SDS011;25422;48.286;8.484;2022-09-03T03:23:44;14.27;;;8.95;;
39738;SDS011;25422;48.286;8.484;2022-09-03T03:26:11;10.27;;;9.23;;
39738;SDS011;25422;48.286;8.484;2022-09-03T03:28:44;11.60;;;9.18;;
39738;SDS011;25422;48.286;8.484;2022-09-03T03:33:40;10.25;;;9.18;;
39738;SDS011;25422;48.286;8.484;2022-09-03T03:36:07;10.00;;;8.90;;
39738;SDS011;25422;48.286;8.484;2022-09-03T03:38:38;12.77;;;8.70;;
39738;SDS011;25422;48.286;8.484;2022-09-03T03:43:37;11.20;;;9.90;;
39738;SDS011;25422;48.286;8.484;2022-09-03T03:46:03;11.05;;;9.73;;
39738;SDS011;25422;48.286;8.484;2022-09-03T03:48:29;12.15;;;9.25;;
39738;SDS011;25422;48.286;8.484;2022-09-03T03:50:58;10.23;;;9.13;;
39738;SDS011;25422;48.286;8.484;2022-09-03T03:53:25;10.70;;;9.70;;
39738;SDS011;25422;48.286;8.484;2022-09-03T03:55:57;11.43;;;9.65;;
39738;SDS011;25422;48.286;8.484;2022-09-03T03:58:23;10.13;;;8.93;;
39738;SDS011;25422;48.286;8.484;2022-09-03T04:00:50;10.70;;;9.60;;
39738;SDS011;25422;48.286;8.484;2022-09-03T04:03:16;10.95;;;9.68;;
39738;SDS011;25422;48.286;8.484;2022-09-03T04:05:42;10.27;;;9.15;;
39738;SDS011;25422;48.286;8.484;2022-09-03T04:08:07;10.10;;;9.13;;
39738;SDS011;25422;48.286;8.484;2022-09-03T04:10:32;12.05;;;9.45;;
39738;SDS011;25422;48.286;8.484;2022-09-03T04:12:58;10.68;;;9.57;;
39738;SDS011;25422;48.286;8.484;2022-09-03T04:15:25;10.13;;;9.13;;
39738;SDS011;25422;48.286;8.484;2022-09-03T04:17:50;10.45;;;9.48;;
39738;SDS011;25422;48.286;8.484;2022-09-03T04:20:19;10.10;;;9.05;;
39738;SDS011;25422;48.286;8.484;2022-09-03T04:22:44;11.82;;;9.43;;
39738;SDS011;25422;48.286;8.484;2022-09-03T04:25:10;9.85;;;8.85;;
39738;SDS011;25422;48.286;8.484;2022-09-03T04:27:35;12.85;;;9.30;;
39738;SDS011;25422;48.286;8.484;2022-09-03T04:30:01;10.70;;;8.75;;
39738;SDS011;25422;48.286;8.484;2022-09-03T04:32:26;9.60;;;8.70;;
39738;SDS011;25422;48.286;8.484;2022-09-03T04:35:10;10.02;;;9.02;;
39738;SDS011;25422;48.286;8.484;2022-09-03T04:37:36;11.13;;;9.52;;
39738;SDS011;25422;48.286;8.484;2022-09-03T04:40:01;11.80;;;9.45;;
39738;SDS011;25422;48.286;8.484;2022-09-03T04:42:28;10.05;;;9.02;;
39738;SDS011;25422;48.286;8.484;2022-09-03T04:44:53;10.13;;;8.75;;
39738;SDS011;25422;48.286;8.484;2022-09-03T04:47:18;9.32;;;8.32;;
39738;SDS011;25422;48.286;8.484;2022-09-03T04:49:44;10.73;;;9.63;;
39738;SDS011;25422;48.286;8.484;2022-09-03T04:52:09;10.50;;;9.40;;
39738;SDS011;25422;48.286;8.484;2022-09-03T04:54:34;10.65;;;9.65;;
39738;SDS011;25422;48.286;8.484;2022-09-03T04:57:00;10.32;;;9.32;;
39738;SDS011;25422;48.286;8.484;2022-09-03T04:59:25;10.80;;;9.70;;
39738;SDS011;25422;48.286;8.484;2022-09-03T05:01:51;11.98;;;10.07;;
39738;SDS011;25422;48.286;8.484;2022-09-03T05:04:16;11.30;;;10.10;;
39738;SDS011;25422;48.286;8.484;2022-09-03T05:06:43;13.98;;;10.00;;
39738;SDS011;25422;48.286;8.484;2022-09-03T05:09:09;10.85;;;9.80;;
39738;SDS011;25422;48.286;8.484;2022-09-03T05:11:35;11.20;;;10.07;;
39738;SDS011;25422;48.286;8.484;2022-09-03T05:14:00;10.60;;;9.60;;
39738;SDS011;25422;48.286;8.484;2022-09-03T05:16:26;13.70;;;8.70;;
39738;SDS011;25422;48.286;8.484;2022-09-03T05:18:54;8.82;;;7.97;;
39738;SDS011;25422;48.286;8.484;2022-09-03T05:21:22;9.50;;;8.30;;
39738;SDS011;25422;48.286;8.484;2022-09-03T05:23:49;9.68;;;8.68;;
39738;SDS011;25422;48.286;8.484;2022-09-03T05:26:16;9.48;;;7.55;;
39738;SDS011;25422;48.286;8.484;2022-09-03T05:28:42;9.32;;;7.97;;
39738;SDS011;25422;48.286;8.484;2022-09-03T05:31:09;9.25;;;7.82;;
39738;SDS011;25422;48.286;8.484;2022-09-03T05:33:46;9.45;;;8.55;;
39738;SDS011;25422;48.286;8.484;2022-09-03T05:38:40;10.00;;;8.63;;
39738;SDS011;25422;48.286;8.484;2022-09-03T05:41:07;11.13;;;9.18;;
39738;SDS011;25422;48.286;8.484;2022-09-03T05:43:34;13.60;;;9.57;;
39738;SDS011;25422;48.286;8.484;2022-09-03T05:46:05;11.90;;;9.77;;
39738;SDS011;25422;48.286;8.484;2022-09-03T05:48:36;10.45;;;8.68;;
39738;SDS011;25422;48.286;8.484;2022-09-03T05:51:12;9.98;;;8.98;;
39738;SDS011;25422;48.286;8.484;2022-09-03T05:53:44;12.38;;;9.32;;
39738;SDS011;25422;48.286;8.484;2022-09-03T05:56:11;10.07;;;9.07;;
39738;SDS011;25422;48.286;8.484;2022-09-03T05:58:39;9.23;;;8.32;;
39738;SDS011;25422;48.286;8.484;2022-09-03T06:01:15;11.13;;;9.63;;
39738;SDS011;25422;48.286;8.484;2022-09-03T06:03:43;13.32;;;9.68;;
39738;SDS011;25422;48.286;8.484;2022-09-03T06:06:11;10.40;;;9.38;;
39738;SDS011;25422;48.286;8.484;2022-09-03T06:08:38;11.55;;;9.88;;
39738;SDS011;25422;48.286;8.484;2022-09-03T06:11:05;11.10;;;10.00;;
39738;SDS011;25422;48.286;8.484;2022-09-03T06:13:31;12.43;;;10.90;;
39738;SDS011;25422;48.286;8.484;2022-09-03T06:15:59;12.18;;;10.40;;
39738;SDS011;25422;48.286;8.484;2022-09-03T06:18:26;13.00;;;11.50;;
39738;SDS011;25422;48.286;8.484;2022-09-03T06:20:52;14.73;;;11.20;;
39738;SDS011;25422;48.286;8.484;2022-09-03T06:23:21;16.45;;;12.18;;
39738;SDS011;25422;48.286;8.484;2022-09-03T06:25:47;13.40;;;12.00;;
39738;SDS011;25422;48.286;8.484;2022-09-03T06:28:13;14.18;;;12.48;;
39738;SDS011;25422;48.286;8.484;2022-09-03T06:30:39;17.35;;;13.60;;
39738;SDS011;25422;48.286;8.484;2022-09-03T06:33:05;16.65;;;13.45;;
39738;SDS011;25422;48.286;8.484;2022-09-03T06:35:31;15.05;;;13.45;;
39738;SDS011;25422;48.286;8.484;2022-09-03T06:37:56;13.75;;;12.35;;
39738;SDS011;25422;48.286;8.484;2022-09-03T06:40:21;14.02;;;12.52;;
39738;SDS011;25422;48.286;8.484;2022-09-03T06:42:56;15.35;;;12.75;;
39738;SDS011;25422;48.286;8.484;2022-09-03T06:45:24;14.80;;;13.20;;
39738;SDS011;25422;48.286;8.484;2022-09-03T06:47:50;15.70;;;12.15;;
39738;SDS011;25422;48.286;8.484;2022-09-03T06:50:15;14.40;;;12.77;;
39738;SDS011;25422;48.286;8.484;2022-09-03T06:52:42;14.27;;;12.07;;
39738;SDS011;25422;48.286;8.484;2022-09-03T06:55:07;16.02;;;13.77;;
39738;SDS011;25422;48.286;8.484;2022-09-03T06:57:33;14.23;;;12.65;;
39738;SDS011;25422;48.286;8.484;2022-09-03T06:59:58;17.15;;;12.40;;
39738;SDS011;25422;48.286;8.484;2022-09-03T07:02:24;12.95;;;11.65;;
39738;SDS011;25422;48.286;8.484;2022-09-03T07:04:49;11.43;;;10.32;;
39738;SDS011;25422;48.286;8.484;2022-09-03T07:07:14;11.55;;;9.65;;
39738;SDS011;25422;48.286;8.484;2022-09-03T07:09:40;10.70;;;9.07;;
39738;SDS011;25422;48.286;8.484;2022-09-03T07:12:05;11.07;;;8.57;;
39738;SDS011;25422;48.286;8.484;2022-09-03T07:14:31;9.13;;;8.23;;
39738;SDS011;25422;48.286;8.484;2022-09-03T07:16:57;8.57;;;7.07;;
39738;SDS011;25422;48.286;8.484;2022-09-03T07:19:22;7.00;;;6.40;;
39738;SDS011;25422;48.286;8.484;2022-09-03T07:21:48;9.07;;;7.00;;
39738;SDS011;25422;48.286;8.484;2022-09-03T07:24:13;7.43;;;6.72;;
39738;SDS011;25422;48.286;8.484;2022-09-03T07:26:40;6.97;;;6.38;;
39738;SDS011;25422;48.286;8.484;2022-09-03T07:29:13;6.55;;;5.95;;
39738;SDS011;25422;48.286;8.484;2022-09-03T07:31:41;6.57;;;5.97;;
39738;SDS011;25422;48.286;8.484;2022-09-03T07:34:08;7.72;;;6.30;;
39738;SDS011;25422;48.286;8.484;2022-09-03T07:36:36;6.53;;;5.90;;
39738;SDS011;25422;48.286;8.484;2022-09-03T07:39:05;6.40;;;5.80;;
39738;SDS011;25422;48.286;8.484;2022-09-03T07:41:31;5.55;;;4.90;;
39738;SDS011;25422;48.286;8.484;2022-09-03T07:43:57;4.50;;;4.10;;
39738;SDS011;25422;48.286;8.484;2022-09-03T07:46:25;6.35;;;4.10;;
39738;SDS011;25422;48.286;8.484;2022-09-03T07:48:52;4.82;;;4.20;;
39738;SDS011;25422;48.286;8.484;2022-09-03T07:51:19;7.78;;;5.20;;
39738;SDS011;25422;48.286;8.484;2022-09-03T07:53:46;6.13;;;4.70;;
39738;SDS011;25422;48.286;8.484;2022-09-03T07:56:13;4.65;;;4.25;;
39738;SDS011;25422;48.286;8.484;2022-09-03T07:58:39;4.55;;;4.13;;
39738;SDS011;25422;48.286;8.484;2022-09-03T08:01:16;4.13;;;3.72;;
39738;SDS011;25422;48.286;8.484;2022-09-03T08:03:43;4.20;;;3.90;;
39738;SDS011;25422;48.286;8.484;2022-09-03T08:06:10;4.28;;;3.83;;
39738;SDS011;25422;48.286;8.484;2022-09-03T08:08:37;4.85;;;4.38;;
39738;SDS011;25422;48.286;8.484;2022-09-03T08:11:04;6.55;;;4.07;;
39738;SDS011;25422;48.286;8.484;2022-09-03T08:16:04;3.30;;;3.00;;
39738;SDS011;25422;48.286;8.484;2022-09-03T08:18:31;3.42;;;2.90;;
39738;SDS011;25422;48.286;8.484;2022-09-03T08:21:00;3.13;;;2.75;;
39738;SDS011;25422;48.286;8.484;2022-09-03T08:23:25;3.80;;;2.70;;
39738;SDS011;25422;48.286;8.484;2022-09-03T08:25:57;2.80;;;2.47;;
39738;SDS011;25422;48.286;8.484;2022-09-03T08:28:24;3.20;;;1.98;;
39738;SDS011;25422;48.286;8.484;2022-09-03T08:30:49;2.17;;;1.98;;
39738;SDS011;25422;48.286;8.484;2022-09-03T08:33:15;2.30;;;2.10;;
39738;SDS011;25422;48.286;8.484;2022-09-03T08:35:40;3.80;;;2.30;;
39738;SDS011;25422;48.286;8.484;2022-09-03T08:38:05;3.08;;;2.22;;
39738;SDS011;25422;48.286;8.484;2022-09-03T08:40:32;2.55;;;2.20;;
39738;SDS011;25422;48.286;8.484;2022-09-03T08:43:14;2.63;;;2.42;;
39738;SDS011;25422;48.286;8.484;2022-09-03T08:45:42;2.95;;;2.40;;
39738;SDS011;25422;48.286;8.484;2022-09-03T08:48:11;3.97;;;2.30;;
39738;SDS011;25422;48.286;8.484;2022-09-03T08:50:40;2.20;;;2.00;;
39738;SDS011;25422;48.286;8.484;2022-09-03T08:53:14;2.50;;;2.13;;
39738;SDS011;25422;48.286;8.484;2022-09-03T08:55:50;2.58;;;2.10;;
39738;SDS011;25422;48.286;8.484;2022-09-03T08:58:18;2.20;;;2.00;;
39738;SDS011;25422;48.286;8.484;2022-09-03T09:09:29;3.10;;;2.80;;
39738;SDS011;25422;48.286;8.484;2022-09-03T09:20:18;4.82;;;2.53;;
39738;SDS011;25422;48.286;8.484;2022-09-03T09:25:25;2.58;;;2.38;;
39738;SDS011;25422;48.286;8.484;2022-09-03T09:27:56;2.70;;;2.30;;
39738;SDS011;25422;48.286;8.484;2022-09-03T09:30:25;3.17;;;2.42;;
39738;SDS011;25422;48.286;8.484;2022-09-03T09:32:51;4.78;;;2.30;;
39738;SDS011;25422;48.286;8.484;2022-09-03T09:35:17;3.28;;;2.03;;
39738;SDS011;25422;48.286;8.484;2022-09-03T09:37:46;3.80;;;2.30;;
39738;SDS011;25422;48.286;8.484;2022-09-03T09:43:10;2.10;;;1.90;;
39738;SDS011;25422;48.286;8.484;2022-09-03T09:45:36;2.63;;;1.80;;
39738;SDS011;25422;48.286;8.484;2022-09-03T09:48:06;2.33;;;2.00;;
39738;SDS011;25422;48.286;8.484;2022-09-03T09:50:35;4.32;;;1.88;;
39738;SDS011;25422;48.286;8.484;2022-09-03T09:53:01;3.10;;;2.08;;
39738;SDS011;25422;48.286;8.484;2022-09-03T09:55:29;3.90;;;2.10;;
39738;SDS011;25422;48.286;8.484;2022-09-03T09:58:07;2.15;;;1.85;;
39738;SDS011;25422;48.286;8.484;2022-09-03T10:00:34;3.25;;;2.10;;
39738;SDS011;25422;48.286;8.484;2022-09-03T10:03:05;3.20;;;2.10;;
39738;SDS011;25422;48.286;8.484;2022-09-03T10:05:35;2.30;;;2.00;;
39738;SDS011;25422;48.286;8.484;2022-09-03T10:08:17;2.67;;;2.03;;
39738;SDS011;25422;48.286;8.484;2022-09-03T10:10:46;4.25;;;1.85;;
39738;SDS011;25422;48.286;8.484;2022-09-03T10:15:55;4.57;;;1.80;;
39738;SDS011;25422;48.286;8.484;2022-09-03T10:21:11;1.90;;;1.77;;
39738;SDS011;25422;48.286;8.484;2022-09-03T10:26:22;2.53;;;2.00;;
39738;SDS011;25422;48.286;8.484;2022-09-03T10:29:05;2.83;;;2.08;;
39738;SDS011;25422;48.286;8.484;2022-09-03T10:34:21;5.57;;;3.45;;
39738;SDS011;25422;48.286;8.484;2022-09-03T10:50:52;5.75;;;3.58;;
39738;SDS011;25422;48.286;8.484;2022-09-03T10:53:28;9.88;;;4.05;;
39738;SDS011;25422;48.286;8.484;2022-09-03T10:55:58;3.17;;;2.55;;
39738;SDS011;25422;48.286;8.484;2022-09-03T10:58:33;3.03;;;2.08;;
39738;SDS011;25422;48.286;8.484;2022-09-03T11:01:22;2.33;;;1.80;;
39738;SDS011;25422;48.286;8.484;2022-09-03T11:06:38;4.82;;;2.42;;
39738;SDS011;25422;48.286;8.484;2022-09-03T11:09:19;8.32;;;2.28;;
39738;SDS011;25422;48.286;8.484;2022-09-03T11:14:39;6.28;;;2.30;;
39738;SDS011;25422;48.286;8.484;2022-09-03T11:17:16;2.83;;;1.80;;
39738;SDS011;25422;48.286;8.484;2022-09-03T11:20:08;1.90;;;1.58;;
39738;SDS011;25422;48.286;8.484;2022-09-03T11:22:35;5.07;;;1.73;;
39738;SDS011;25422;48.286;8.484;2022-09-03T11:25:03;2.38;;;1.70;;
39738;SDS011;25422;48.286;8.484;2022-09-03T11:30:06;6.18;;;2.65;;
39738;SDS011;25422;48.286;8.484;2022-09-03T11:32:46;2.78;;;2.15;;
39738;SDS011;25422;48.286;8.484;2022-09-03T11:40:38;5.28;;;2.10;;
39738;SDS011;25422;48.286;8.484;2022-09-03T11:43:12;4.15;;;1.83;;
39738;SDS011;25422;48.286;8.484;2022-09-03T11:49:10;5.80;;;1.40;;
39738;SDS011;25422;48.286;8.484;2022-09-03T11:51:38;4.82;;;1.55;;
39738;SDS011;25422;48.286;8.484;2022-09-03T11:56:37;1.30;;;1.20;;
39738;SDS011;25422;48.286;8.484;2022-09-03T12:04:21;2.20;;;1.20;;
39738;SDS011;25422;48.286;8.484;2022-09-03T12:12:42;1.58;;;0.90;;
39738;SDS011;25422;48.286;8.484;2022-09-03T12:18:01;0.95;;;0.95;;
39738;SDS011;25422;48.286;8.484;2022-09-03T12:20:47;0.90;;;0.90;;
39738;SDS011;25422;48.286;8.484;2022-09-03T12:23:28;2.63;;;1.08;;
39738;SDS011;25422;48.286;8.484;2022-09-03T12:25:57;2.33;;;1.08;;
39738;SDS011;25422;48.286;8.484;2022-09-03T12:28:27;1.70;;;1.00;;
39738;SDS011;25422;48.286;8.484;2022-09-03T12:31:04;2.05;;;0.90;;
39738;SDS011;25422;48.286;8.484;2022-09-03T12:33:32;0.90;;;0.90;;
39738;SDS011;25422;48.286;8.484;2022-09-03T12:35:58;1.08;;;0.98;;
39738;SDS011;25422;48.286;8.484;2022-09-03T12:38:25;0.70;;;0.70;;
39738;SDS011;25422;48.286;8.484;2022-09-03T12:40:53;0.90;;;0.82;;
39738;SDS011;25422;48.286;8.484;2022-09-03T12:43:19;0.80;;;0.80;;
39738;SDS011;25422;48.286;8.484;2022-09-03T12:45:46;1.05;;;0.90;;
39738;SDS011;25422;48.286;8.484;2022-09-03T12:48:16;1.23;;;0.77;;
39738;SDS011;25422;48.286;8.484;2022-09-03T12:50:43;1.30;;;0.90;;
39738;SDS011;25422;48.286;8.484;2022-09-03T12:53:11;1.67;;;0.90;;
39738;SDS011;25422;48.286;8.484;2022-09-03T12:58:19;1.33;;;0.90;;
39738;SDS011;25422;48.286;8.484;2022-09-03T13:01:02;1.98;;;0.80;;
39738;SDS011;25422;48.286;8.484;2022-09-03T13:06:09;0.93;;;0.63;;
39738;SDS011;25422;48.286;8.484;2022-09-03T13:08:40;2.42;;;0.80;;
39738;SDS011;25422;48.286;8.484;2022-09-03T13:11:13;1.23;;;0.80;;
39738;SDS011;25422;48.286;8.484;2022-09-03T13:13:47;1.23;;;0.80;;
39738;SDS011;25422;48.286;8.484;2022-09-03T13:16:30;0.73;;;0.73;;
39738;SDS011;25422;48.286;8.484;2022-09-03T13:19:07;1.05;;;0.73;;
39738;SDS011;25422;48.286;8.484;2022-09-03T13:41:25;1.10;;;1.00;;
39738;SDS011;25422;48.286;8.484;2022-09-03T13:44:10;0.93;;;0.75;;
39738;SDS011;25422;48.286;8.484;2022-09-03T13:46:52;1.70;;;0.90;;
39738;SDS011;25422;48.286;8.484;2022-09-03T13:55:20;0.75;;;0.75;;
39738;SDS011;25422;48.286;8.484;2022-09-03T13:57:52;1.35;;;0.80;;
39738;SDS011;25422;48.286;8.484;2022-09-03T14:03:09;0.70;;;0.70;;
39738;SDS011;25422;48.286;8.484;2022-09-03T14:11:34;22.48;;;3.00;;
39738;SDS011;25422;48.286;8.484;2022-09-03T14:14:12;26.08;;;3.42;;
39738;SDS011;25422;48.286;8.484;2022-09-03T14:17:02;1.05;;;0.88;;
39738;SDS011;25422;48.286;8.484;2022-09-03T14:19:59;2.78;;;1.10;;
39738;SDS011;25422;48.286;8.484;2022-09-03T14:22:47;1.33;;;1.00;;
39738;SDS011;25422;48.286;8.484;2022-09-03T14:25:21;17.10;;;2.50;;
39738;SDS011;25422;48.286;8.484;2022-09-03T14:27:49;6.28;;;1.20;;
39738;SDS011;25422;48.286;8.484;2022-09-03T14:32:45;9.48;;;1.80;;
39738;SDS011;25422;48.286;8.484;2022-09-03T14:35:26;2.05;;;0.70;;
39738;SDS011;25422;48.286;8.484;2022-09-03T14:38:06;2.63;;;0.82;;
39738;SDS011;25422;48.286;8.484;2022-09-03T14:40:44;4.20;;;1.10;;
39738;SDS011;25422;48.286;8.484;2022-09-03T14:43:19;4.05;;;0.80;;
39738;SDS011;25422;48.286;8.484;2022-09-03T15:13:10;1.25;;;0.80;;
39738;SDS011;25422;48.286;8.484;2022-09-03T15:18:13;2.92;;;1.02;;
39738;SDS011;25422;48.286;8.484;2022-09-03T15:20:53;1.05;;;0.77;;
39738;SDS011;25422;48.286;8.484;2022-09-03T15:23:30;0.70;;;0.70;;
39738;SDS011;25422;48.286;8.484;2022-09-03T15:26:33;0.77;;;0.75;;
39738;SDS011;25422;48.286;8.484;2022-09-03T15:29:31;1.45;;;0.80;;
39738;SDS011;25422;48.286;8.484;2022-09-03T15:36:08;0.60;;;0.60;;
39738;SDS011;25422;48.286;8.484;2022-09-03T15:38:40;2.17;;;0.70;;
39738;SDS011;25422;48.286;8.484;2022-09-03T15:41:25;1.98;;;1.10;;
39738;SDS011;25422;48.286;8.484;2022-09-03T15:43:59;1.55;;;0.90;;
39738;SDS011;25422;48.286;8.484;2022-09-03T15:46:37;1.15;;;0.80;;
39738;SDS011;25422;48.286;8.484;2022-09-03T15:49:17;1.25;;;1.15;;
39738;SDS011;25422;48.286;8.484;2022-09-03T15:52:37;2.50;;;0.80;;
39738;SDS011;25422;48.286;8.484;2022-09-03T16:03:09;0.88;;;0.73;;
39738;SDS011;25422;48.286;8.484;2022-09-03T16:06:02;2.65;;;0.65;;
39738;SDS011;25422;48.286;8.484;2022-09-03T16:16:26;1.30;;;0.60;;
39738;SDS011;25422;48.286;8.484;2022-09-03T16:26:54;2.05;;;0.70;;
39738;SDS011;25422;48.286;8.484;2022-09-03T16:29:26;0.80;;;0.73;;
39738;SDS011;25422;48.286;8.484;2022-09-03T16:48:41;1.00;;;1.00;;
39738;SDS011;25422;48.286;8.484;2022-09-03T16:51:37;1.85;;;1.00;;
39738;SDS011;25422;48.286;8.484;2022-09-03T16:54:26;2.80;;;1.00;;
39738;SDS011;25422;48.286;8.484;2022-09-03T16:57:14;1.13;;;0.80;;
39738;SDS011;25422;48.286;8.484;2022-09-03T17:02:50;2.35;;;1.00;;
39738;SDS011;25422;48.286;8.484;2022-09-03T17:05:47;2.10;;;0.90;;
39738;SDS011;25422;48.286;8.484;2022-09-03T17:11:31;1.33;;;0.80;;
39738;SDS011;25422;48.286;8.484;2022-09-03T17:19:59;2.42;;;0.77;;
39738;SDS011;25422;48.286;8.484;2022-09-03T17:22:57;1.25;;;0.93;;
39738;SDS011;25422;48.286;8.484;2022-09-03T17:25:37;1.90;;;0.90;;
39738;SDS011;25422;48.286;8.484;2022-09-03T17:30:47;1.08;;;1.02;;
39738;SDS011;25422;48.286;8.484;2022-09-03T17:36:26;0.88;;;0.80;;
39738;SDS011;25422;48.286;8.484;2022-09-03T17:41:41;1.10;;;1.00;;
39738;SDS011;25422;48.286;8.484;2022-09-03T17:44:16;1.00;;;0.80;;
39738;SDS011;25422;48.286;8.484;2022-09-03T17:49:31;2.90;;;0.90;;
39738;SDS011;25422;48.286;8.484;2022-09-03T17:54:54;2.65;;;1.50;;
39738;SDS011;25422;48.286;8.484;2022-09-03T17:57:31;2.55;;;1.50;;
39738;SDS011;25422;48.286;8.484;2022-09-03T18:00:07;1.77;;;1.30;;
39738;SDS011;25422;48.286;8.484;2022-09-03T18:02:51;3.58;;;1.45;;
39738;SDS011;25422;48.286;8.484;2022-09-03T18:11:22;1.40;;;1.30;;
39738;SDS011;25422;48.286;8.484;2022-09-03T18:14:01;1.25;;;1.13;;
39738;SDS011;25422;48.286;8.484;2022-09-03T18:16:33;1.75;;;1.65;;
39738;SDS011;25422;48.286;8.484;2022-09-03T18:19:18;2.03;;;1.33;;
39738;SDS011;25422;48.286;8.484;2022-09-03T18:21:55;1.42;;;1.30;;
39738;SDS011;25422;48.286;8.484;2022-09-03T18:24:46;2.50;;;1.55;;
39738;SDS011;25422;48.286;8.484;2022-09-03T18:27:43;1.75;;;1.23;;
39738;SDS011;25422;48.286;8.484;2022-09-03T18:30:32;1.73;;;1.60;;
39738;SDS011;25422;48.286;8.484;2022-09-03T18:33:18;1.45;;;1.35;;
39738;SDS011;25422;48.286;8.484;2022-09-03T18:36:06;3.10;;;1.55;;
39738;SDS011;25422;48.286;8.484;2022-09-03T18:38:51;2.05;;;1.70;;
39738;SDS011;25422;48.286;8.484;2022-09-03T18:53:26;2.20;;;1.95;;
39738;SDS011;25422;48.286;8.484;2022-09-03T18:59:31;2.85;;;1.70;;
39738;SDS011;25422;48.286;8.484;2022-09-03T19:05:24;1.75;;;1.65;;
39738;SDS011;25422;48.286;8.484;2022-09-03T19:08:27;3.00;;;1.80;;
39738;SDS011;25422;48.286;8.484;2022-09-03T19:11:25;3.47;;;1.65;;
39738;SDS011;25422;48.286;8.484;2022-09-03T19:14:20;2.00;;;1.90;;
39738;SDS011;25422;48.286;8.484;2022-09-03T19:17:20;1.98;;;1.70;;
39738;SDS011;25422;48.286;8.484;2022-09-03T19:20:27;2.58;;;1.90;;
39738;SDS011;25422;48.286;8.484;2022-09-03T19:23:13;2.38;;;2.17;;
39738;SDS011;25422;48.286;8.484;2022-09-03T19:25:59;3.72;;;2.17;;
39738;SDS011;25422;48.286;8.484;2022-09-03T19:29:02;4.45;;;2.58;;
39738;SDS011;25422;48.286;8.484;2022-09-03T19:31:59;2.22;;;2.03;;
39738;SDS011;25422;48.286;8.484;2022-09-03T19:34:58;2.85;;;2.30;;
39738;SDS011;25422;48.286;8.484;2022-09-03T19:38:09;2.78;;;2.25;;
39738;SDS011;25422;48.286;8.484;2022-09-03T19:41:12;3.67;;;2.80;;
39738;SDS011;25422;48.286;8.484;2022-09-03T19:50:28;2.78;;;2.03;;
39738;SDS011;25422;48.286;8.484;2022-09-03T19:53:18;3.20;;;2.30;;
39738;SDS011;25422;48.286;8.484;2022-09-03T19:56:03;3.08;;;1.90;;
39738;SDS011;25422;48.286;8.484;2022-09-03T19:58:55;2.60;;;2.20;;
39738;SDS011;25422;48.286;8.484;2022-09-03T20:01:44;3.42;;;2.28;;
39738;SDS011;25422;48.286;8.484;2022-09-03T20:04:40;2.58;;;2.38;;
39738;SDS011;25422;48.286;8.484;2022-09-03T20:07:30;2.50;;;2.30;;
39738;SDS011;25422;48.286;8.484;2022-09-03T20:10:15;3.08;;;2.10;;
39738;SDS011;25422;48.286;8.484;2022-09-03T20:13:09;3.35;;;2.20;;
39738;SDS011;25422;48.286;8.484;2022-09-03T20:24:03;2.80;;;2.60;;
39738;SDS011;25422;48.286;8.484;2022-09-03T20:26:47;2.65;;;2.35;;
39738;SDS011;25422;48.286;8.484;2022-09-03T20:32:10;3.03;;;2.63;;
39738;SDS011;25422;48.286;8.484;2022-09-03T20:42:49;4.75;;;3.42;;
39738;SDS011;25422;48.286;8.484;2022-09-03T20:56:02;5.88;;;3.50;;
39738;SDS011;25422;48.286;8.484;2022-09-03T21:01:50;8.43;;;4.13;;
39738;SDS011;25422;48.286;8.484;2022-09-03T21:23:42;4.50;;;4.10;;
39738;SDS011;25422;48.286;8.484;2022-09-03T21:26:14;5.30;;;4.47;;
39738;SDS011;25422;48.286;8.484;2022-09-03T21:28:49;4.95;;;3.88;;